createdAt,value
2019-04-28T00:01:41.017Z,40.93
2019-04-28T00:03:45.380Z,38.83
2019-04-28T00:05:51.364Z,41.63
2019-04-28T00:07:58.562Z,45.87
2019-04-28T00:10:28.977Z,45.83
2019-04-28T00:12:33.311Z,50.73
2019-04-28T00:14:37.743Z,44.63
2019-04-28T00:16:42.282Z,38.90
2019-04-28T00:18:46.639Z,48.57
2019-04-28T00:21:04.625Z,39.20
2019-04-28T00:23:21.878Z,39.20
2019-04-28T00:25:38.728Z,41.70
2019-04-28T00:27:57.021Z,42.97
2019-04-28T00:30:02.060Z,45.63
2019-04-28T00:32:06.668Z,41.60
2019-04-28T00:34:11.550Z,41.33
2019-04-28T00:36:25.306Z,30.10
2019-04-28T00:38:46.450Z,27.60
2019-04-28T00:40:51.022Z,41.47
2019-04-28T00:42:52.355Z,38.50
2019-04-28T00:45:11.394Z,30.60
2019-04-28T00:47:21.160Z,42.80
2019-04-28T00:50:07.072Z,54.43
2019-04-28T00:52:51.888Z,45.27
2019-04-28T00:58:00.865Z,32.83
2019-04-28T00:59:54.084Z,35.47
2019-04-28T01:02:03.321Z,41.33
2019-04-28T01:04:41.595Z,37.13
2019-04-28T01:07:11.793Z,39.17
2019-04-28T01:09:16.520Z,37.07
2019-04-28T01:11:55.195Z,34.17
2019-04-28T01:14:13.235Z,37.83
2019-04-28T01:16:45.857Z,39.90
2019-04-28T01:19:05.543Z,36.33
2019-04-28T01:21:15.261Z,60.30
2019-04-28T01:23:33.688Z,33.60
2019-04-28T01:25:34.946Z,45.03
2019-04-28T01:28:00.211Z,37.17
2019-04-28T01:30:47.818Z,33.67
2019-04-28T01:33:01.415Z,39.40
2019-04-28T01:35:05.924Z,30.77
2019-04-28T01:37:30.974Z,37.93
2019-04-28T01:39:36.650Z,35.93
2019-04-28T01:42:01.698Z,31.40
2019-04-28T01:47:01.211Z,41.13
2019-04-28T01:49:05.518Z,33.43
2019-04-28T01:51:55.542Z,47.30
2019-04-28T01:54:02.383Z,41.00
2019-04-28T01:56:32.076Z,29.60
2019-04-28T01:59:05.724Z,30.37
2019-04-28T02:03:58.094Z,24.87
2019-04-28T02:06:20.391Z,51.43
2019-04-28T02:08:30.931Z,27.30
2019-04-28T02:11:00.006Z,30.10
2019-04-28T02:13:13.584Z,33.97
2019-04-28T02:15:17.653Z,32.10
2019-04-28T02:17:21.634Z,30.67
2019-04-28T02:19:25.472Z,37.03
2019-04-28T02:21:59.461Z,36.40
2019-04-28T02:25:00.256Z,51.77
2019-04-28T02:27:11.025Z,33.60
2019-04-28T02:29:30.862Z,26.10
2019-04-28T02:31:55.196Z,28.97
2019-04-28T02:36:40.988Z,28.00
2019-04-28T02:39:00.772Z,33.47
2019-04-28T02:41:06.924Z,32.07
2019-04-28T02:46:27.342Z,30.97
2019-04-28T02:48:53.969Z,37.83
2019-04-28T02:53:57.469Z,28.33
2019-04-28T02:56:01.572Z,33.97
2019-04-28T02:58:52.755Z,53.37
2019-04-28T03:01:24.924Z,41.10
2019-04-28T03:03:54.867Z,26.90
2019-04-28T03:06:30.642Z,27.80
2019-04-28T03:08:46.287Z,27.90
2019-04-28T03:11:11.581Z,36.50
2019-04-28T03:13:43.433Z,32.47
2019-04-28T03:16:13.349Z,35.47
2019-04-28T03:18:36.633Z,29.90
2019-04-28T03:21:21.371Z,40.37
2019-04-28T03:23:31.716Z,28.10
2019-04-28T03:26:26.197Z,22.07
2019-04-28T03:29:13.036Z,36.33
2019-04-28T03:32:23.176Z,27.30
2019-04-28T03:34:36.763Z,42.73
2019-04-28T03:36:52.715Z,40.57
2019-04-28T03:38:57.270Z,34.50
2019-04-28T03:41:33.298Z,31.13
2019-04-28T03:44:00.515Z,28.00
2019-04-28T03:46:56.000Z,34.33
2019-04-28T03:49:50.950Z,30.40
2019-04-28T03:52:21.482Z,48.23
2019-04-28T03:54:53.609Z,33.20
2019-04-28T03:57:22.469Z,32.17
2019-04-28T04:00:18.121Z,27.73
2019-04-28T04:02:52.043Z,38.63
2019-04-28T04:05:14.812Z,23.87
2019-04-28T04:10:54.858Z,49.77
2019-04-28T04:13:44.076Z,16.67
2019-04-28T04:16:31.337Z,31.60
2019-04-28T04:19:20.162Z,33.97
2019-04-28T04:24:42.697Z,32.37
2019-04-28T04:26:54.160Z,42.50
2019-04-28T04:29:30.942Z,33.30
2019-04-28T04:32:56.843Z,40.97
2019-04-28T04:39:25.100Z,30.20
2019-04-28T04:42:50.141Z,39.43
2019-04-28T04:45:05.324Z,49.83
2019-04-28T04:47:40.680Z,46.57
2019-04-28T04:50:05.878Z,29.00
2019-04-28T04:52:40.261Z,37.93
2019-04-28T04:55:31.037Z,43.83
2019-04-28T04:58:27.827Z,27.10
2019-04-28T05:01:03.314Z,36.83
2019-04-28T05:06:43.352Z,49.07
2019-04-28T05:09:11.259Z,44.50
2019-04-28T05:11:50.124Z,30.73
2019-04-28T05:14:11.940Z,35.07
2019-04-28T05:16:29.742Z,34.70
2019-04-28T05:19:07.063Z,33.00
2019-04-28T05:21:21.570Z,34.10
2019-04-28T05:23:43.631Z,38.50
2019-04-28T05:26:08.116Z,34.50
2019-04-28T05:28:54.880Z,35.70
2019-04-28T05:31:54.721Z,47.03
2019-04-28T05:34:23.771Z,38.90
2019-04-28T05:36:43.815Z,43.73
2019-04-28T05:39:14.576Z,45.27
2019-04-28T05:41:40.529Z,27.07
2019-04-28T05:44:02.985Z,31.33
2019-04-28T05:46:24.133Z,39.63
2019-04-28T05:49:10.254Z,31.97
2019-04-28T05:52:00.689Z,37.30
2019-04-28T05:54:55.373Z,30.90
2019-04-28T05:57:40.829Z,36.93
2019-04-28T06:00:41.818Z,35.53
2019-04-28T06:03:36.099Z,31.00
2019-04-28T06:13:03.311Z,30.10
2019-04-28T06:22:09.957Z,33.90
2019-04-28T06:33:54.612Z,25.97
2019-04-28T06:39:33.600Z,32.43
2019-04-28T06:42:31.188Z,30.57
2019-04-28T06:51:12.556Z,24.63
2019-04-28T06:53:54.931Z,24.73
2019-04-28T06:56:14.071Z,32.20
2019-04-28T07:38:11.726Z,29.67
2019-04-28T07:44:29.887Z,30.23
2019-04-28T07:55:52.086Z,31.57
2019-04-28T08:04:59.999Z,17.67
2019-04-28T08:09:48.527Z,19.60
2019-04-28T08:13:21.687Z,16.33
2019-04-28T08:15:02.399Z,36.83
2019-04-28T08:16:02.173Z,25.03
2019-04-28T08:19:29.086Z,17.27
2019-04-28T08:21:44.467Z,27.60
2019-04-28T08:30:15.016Z,28.27
2019-04-28T08:33:00.181Z,26.43
2019-04-28T08:34:12.336Z,24.63
2019-04-28T08:35:50.859Z,26.23
2019-04-28T08:44:46.096Z,17.23
2019-04-28T08:47:35.706Z,15.67
2019-04-28T08:49:54.449Z,37.43
2019-04-28T08:52:13.594Z,20.00
2019-04-28T08:55:07.510Z,19.13
2019-04-28T08:57:26.649Z,13.27
2019-04-28T09:02:39.423Z,15.27
2019-04-28T09:05:15.228Z,9.97
2019-04-28T09:07:43.886Z,16.40
2019-04-28T09:10:18.733Z,13.17
2019-04-28T09:15:21.649Z,23.80
2019-04-28T09:17:31.059Z,11.27
2019-04-28T09:19:37.892Z,17.17
2019-04-28T09:21:42.102Z,15.53
2019-04-28T09:23:46.076Z,15.03
2019-04-28T09:25:55.127Z,12.20
2019-04-28T09:28:13.410Z,13.97
2019-04-28T09:30:19.756Z,10.83
2019-04-28T09:32:23.802Z,12.53
2019-04-28T09:34:28.760Z,13.80
2019-04-28T09:36:32.805Z,21.83
2019-04-28T09:38:36.632Z,13.50
2019-04-28T09:41:03.422Z,11.30
2019-04-28T09:43:34.772Z,10.13
2019-04-28T09:45:52.901Z,14.00
2019-04-28T09:48:20.826Z,9.10
2019-04-28T09:50:50.789Z,10.90
2019-04-28T09:53:04.202Z,13.10
2019-04-28T09:55:28.008Z,17.60
2019-04-28T09:57:48.071Z,7.90
2019-04-28T10:00:08.825Z,23.50
2019-04-28T10:23:28.162Z,26.27
2019-04-28T10:32:46.729Z,12.27
2019-04-28T10:35:11.033Z,18.03
2019-04-28T10:37:37.870Z,21.90
2019-04-28T10:40:20.395Z,15.43
2019-04-28T10:42:50.729Z,18.53
2019-04-28T10:45:19.889Z,26.23
2019-04-28T10:47:32.099Z,15.00
2019-04-28T10:57:29.569Z,12.83
2019-04-28T11:04:11.775Z,18.40
2019-04-28T11:34:30.838Z,13.97
2019-04-28T11:37:36.632Z,10.77
2019-04-28T11:40:32.192Z,6.07
2019-04-28T11:43:09.617Z,7.10
2019-04-28T11:45:54.398Z,9.67
2019-04-28T11:48:22.239Z,5.90
2019-04-28T12:16:17.837Z,11.63
2019-04-28T12:25:05.199Z,17.93
2019-04-28T12:34:12.322Z,11.43
2019-04-28T12:36:59.285Z,8.23
2019-04-28T12:41:28.338Z,16.13
2019-04-28T12:43:42.298Z,17.13
2019-04-28T12:46:05.229Z,20.53
2019-04-28T12:48:42.564Z,14.23
2019-04-28T12:51:11.291Z,7.93
2019-04-28T12:53:18.620Z,8.07
2019-04-28T12:55:23.526Z,10.87
2019-04-28T12:57:36.710Z,14.00
2019-04-28T13:00:01.073Z,21.60
2019-04-28T13:03:02.076Z,13.43
2019-04-28T13:05:38.907Z,10.43
2019-04-28T13:10:51.324Z,9.13
2019-04-28T13:12:57.575Z,19.53
2019-04-28T13:17:39.428Z,34.57
2019-04-28T13:19:55.611Z,18.70
2019-04-28T13:22:06.620Z,18.37
2019-04-28T13:24:12.686Z,22.33
2019-04-28T13:26:40.941Z,23.87
2019-04-28T13:29:18.632Z,21.63
2019-04-28T13:31:27.413Z,20.10
2019-04-28T13:33:55.375Z,19.90
2019-04-28T13:35:53.754Z,42.63
2019-04-28T13:38:01.176Z,25.33
2019-04-28T13:40:12.146Z,19.10
2019-04-28T13:42:21.847Z,15.40
2019-04-28T13:44:49.911Z,19.77
2019-04-28T13:46:54.564Z,15.60
2019-04-28T13:49:15.041Z,22.63
2019-04-28T13:51:26.424Z,18.07
2019-04-28T13:53:39.471Z,12.27
2019-04-28T13:56:17.704Z,18.60
2019-04-28T13:58:51.147Z,18.90
2019-04-28T14:01:17.375Z,15.57
2019-04-28T14:04:05.619Z,9.27
2019-04-28T14:06:40.866Z,16.03
2019-04-28T14:08:55.694Z,11.53
2019-04-28T14:11:01.184Z,12.60
2019-04-28T14:13:10.113Z,7.00
2019-04-28T14:15:18.513Z,6.00
2019-04-28T14:17:27.753Z,9.40
2019-04-28T14:19:42.696Z,8.33
2019-04-28T14:22:15.072Z,8.10
2019-04-28T14:24:46.009Z,6.77
2019-04-28T14:26:55.238Z,13.83
2019-04-28T14:29:24.316Z,5.50
2019-04-28T14:31:37.961Z,4.80
2019-04-28T14:33:42.584Z,7.27
2019-04-28T14:35:59.586Z,8.40
2019-04-28T14:38:23.730Z,8.93
2019-04-28T14:41:03.678Z,7.70
2019-04-28T14:43:46.538Z,6.50
2019-04-28T14:45:51.032Z,4.63
2019-04-28T14:48:01.475Z,9.27
2019-04-28T14:50:23.798Z,8.53
2019-04-28T14:53:01.142Z,13.03
2019-04-28T14:55:00.845Z,13.50
2019-04-28T14:57:12.539Z,12.40
2019-04-28T14:59:16.668Z,10.87
2019-04-28T15:01:37.372Z,5.80
2019-04-28T15:03:44.788Z,6.17
2019-04-28T15:06:02.453Z,10.90
2019-04-28T15:08:22.987Z,5.97
2019-04-28T15:10:45.286Z,16.50
2019-04-28T15:12:56.094Z,10.07
2019-04-28T15:15:03.503Z,17.43
2019-04-28T15:17:07.626Z,14.63
2019-04-28T15:19:11.833Z,11.07
2019-04-28T15:21:15.873Z,8.90
2019-04-28T15:23:19.924Z,10.80
2019-04-28T15:25:33.051Z,16.77
2019-04-28T15:27:37.143Z,9.17
2019-04-28T15:30:11.338Z,11.90
2019-04-28T15:32:15.300Z,9.30
2019-04-28T15:34:19.622Z,11.23
2019-04-28T15:36:23.809Z,7.60
2019-04-28T15:38:27.833Z,15.33
2019-04-28T15:40:32.723Z,9.97
2019-04-28T15:42:49.730Z,5.97
2019-04-28T15:45:11.662Z,12.97
2019-04-28T15:47:16.206Z,14.23
2019-04-28T15:50:01.666Z,8.17
2019-04-28T15:52:02.040Z,9.50
2019-04-28T15:54:06.193Z,14.93
2019-04-28T15:56:16.596Z,12.60
2019-04-28T15:58:30.902Z,12.33
2019-04-28T16:00:35.059Z,12.73
2019-04-28T16:02:39.058Z,10.07
2019-04-28T16:04:43.028Z,11.37
2019-04-28T16:06:59.374Z,9.30
2019-04-28T16:09:23.620Z,13.90
2019-04-28T16:11:41.651Z,11.27
2019-04-28T16:13:52.283Z,8.27
2019-04-28T16:16:02.659Z,19.77
2019-04-28T16:18:14.945Z,10.63
2019-04-28T16:20:21.872Z,9.07
2019-04-28T16:22:28.497Z,8.67
2019-04-28T16:24:37.866Z,15.30
2019-04-28T16:26:50.087Z,12.50
2019-04-28T16:29:12.802Z,14.77
2019-04-28T16:31:17.230Z,13.70
2019-04-28T16:33:24.684Z,9.70
2019-04-28T16:35:28.861Z,14.37
2019-04-28T16:37:39.053Z,13.97
2019-04-28T16:39:48.201Z,17.83
2019-04-28T16:42:18.703Z,13.20
2019-04-28T16:44:35.842Z,14.07
2019-04-28T16:47:02.604Z,12.13
2019-04-28T16:49:16.665Z,16.10
2019-04-28T16:51:39.681Z,15.73
2019-04-28T16:54:31.227Z,17.73
2019-04-28T16:57:15.202Z,17.73
2019-04-28T16:59:43.687Z,11.60
2019-04-28T17:02:47.185Z,16.37
2019-04-28T17:04:55.013Z,17.07
2019-04-28T17:11:05.458Z,20.63
2019-04-28T17:13:45.995Z,16.27
2019-04-28T17:16:34.645Z,12.30
2019-04-28T17:19:04.992Z,9.10
2019-04-28T17:21:37.175Z,17.33
2019-04-28T17:23:50.449Z,14.10
2019-04-28T17:29:25.160Z,10.70
2019-04-28T17:35:01.986Z,12.00
2019-04-28T17:37:22.062Z,12.80
2019-04-28T17:45:22.711Z,15.63
2019-04-28T17:47:53.412Z,12.10
2019-04-28T17:51:12.493Z,16.87
2019-04-28T17:56:34.821Z,15.60
2019-04-28T17:58:57.162Z,18.23
2019-04-28T18:01:45.572Z,15.47
2019-04-28T18:04:40.230Z,14.97
2019-04-28T18:07:12.331Z,16.00
2019-04-28T18:09:52.234Z,16.97
2019-04-28T18:12:11.124Z,17.20
2019-04-28T18:14:40.818Z,21.40
2019-04-28T18:17:27.319Z,16.50
2019-04-28T18:19:54.785Z,17.13
2019-04-28T18:22:31.522Z,22.73
2019-04-28T18:24:49.183Z,17.63
2019-04-28T18:27:27.546Z,26.47
2019-04-28T18:29:42.130Z,24.33
2019-04-28T18:32:21.938Z,30.53
2019-04-28T18:35:04.736Z,17.70
2019-04-28T18:38:16.121Z,22.33
2019-04-28T18:40:48.726Z,18.07
2019-04-28T18:43:18.039Z,21.57
2019-04-28T18:45:29.866Z,23.17
2019-04-28T18:47:34.886Z,24.43
2019-04-28T18:49:44.718Z,23.77
2019-04-28T18:52:08.202Z,17.87
2019-04-28T18:54:34.457Z,20.17
2019-04-28T18:56:38.515Z,21.93
2019-04-28T18:59:06.735Z,21.27
2019-04-28T19:01:22.012Z,26.80
2019-04-28T19:03:38.241Z,19.90
2019-04-28T19:05:47.606Z,23.70
2019-04-28T19:08:20.511Z,22.97
2019-04-28T19:11:17.301Z,25.73
2019-04-28T19:13:39.610Z,19.53
2019-04-28T19:16:10.034Z,31.53
2019-04-28T19:18:25.258Z,36.30
2019-04-28T19:20:47.108Z,20.30
2019-04-28T19:22:50.547Z,26.30
2019-04-28T19:25:05.133Z,29.07
2019-04-28T19:27:26.731Z,32.37
2019-04-28T19:30:00.531Z,36.43
2019-04-28T19:32:17.663Z,34.23
2019-04-28T19:35:03.752Z,37.13
2019-04-28T19:37:25.745Z,30.87
2019-04-28T19:39:34.406Z,35.47
2019-04-28T19:41:49.658Z,39.60
2019-04-28T19:44:03.076Z,36.00
2019-04-28T19:46:45.542Z,34.70
2019-04-28T19:48:53.651Z,38.30
2019-04-28T19:51:11.546Z,49.50
2019-04-28T19:54:03.626Z,46.03
2019-04-28T19:56:30.087Z,36.90
2019-04-28T19:58:40.351Z,48.10
2019-04-28T20:00:55.764Z,45.50
2019-04-28T20:03:00.119Z,40.13
2019-04-28T20:07:33.850Z,33.60
2019-04-28T20:09:38.172Z,34.20
2019-04-28T20:11:43.425Z,42.77
2019-04-28T20:13:47.602Z,43.50
2019-04-28T20:15:51.470Z,44.47
2019-04-28T20:18:00.269Z,50.03
2019-04-28T20:20:02.618Z,50.87
2019-04-28T20:22:07.172Z,44.73
2019-04-28T20:24:11.383Z,41.37
2019-04-28T20:26:24.500Z,50.47
2019-04-28T20:28:33.883Z,47.63
2019-04-28T20:30:56.700Z,50.83
2019-04-28T20:33:07.453Z,51.03
2019-04-28T20:35:10.331Z,50.30
2019-04-28T20:37:31.992Z,47.50
2019-04-28T20:39:36.060Z,47.33
2019-04-28T20:41:40.087Z,49.20
2019-04-28T20:43:44.567Z,54.20
2019-04-28T20:45:48.923Z,45.73
2019-04-28T20:47:53.408Z,58.47
2019-04-28T20:50:07.014Z,52.47
2019-04-28T20:52:11.401Z,44.70
2019-04-28T20:54:24.458Z,55.10
2019-04-28T20:56:46.532Z,45.90
2019-04-28T21:01:32.409Z,55.87
2019-04-28T21:03:38.595Z,53.77
2019-04-28T21:08:22.830Z,53.30
2019-04-28T21:10:37.255Z,58.67
2019-04-28T21:12:32.442Z,52.30
2019-04-28T21:14:36.573Z,62.50
2019-04-28T21:16:40.621Z,64.00
2019-04-28T21:18:44.557Z,74.53
2019-04-28T21:20:48.390Z,57.80
2019-04-28T21:22:52.259Z,69.33
2019-04-28T21:24:56.189Z,52.93
2019-04-28T21:27:00.078Z,73.90
2019-04-28T21:29:06.868Z,60.83
2019-04-28T21:31:10.781Z,74.80
2019-04-28T21:33:14.683Z,62.67
2019-04-28T21:35:19.687Z,57.47
2019-04-28T21:37:23.621Z,51.97
2019-04-28T21:39:31.658Z,60.70
2019-04-28T21:41:35.459Z,54.43
2019-04-28T21:43:54.527Z,65.23
2019-04-28T21:46:29.643Z,71.03
2019-04-28T21:48:52.664Z,57.97
2019-04-28T21:50:57.476Z,65.80
2019-04-28T21:53:01.288Z,85.03
2019-04-28T21:55:05.727Z,73.10
2019-04-28T21:57:09.758Z,72.17
2019-04-28T21:59:13.861Z,63.13
2019-04-28T22:01:20.907Z,68.30
2019-04-28T22:03:25.509Z,59.57
2019-04-28T22:05:30.534Z,72.87
2019-04-28T22:07:39.549Z,68.13
2019-04-28T22:09:43.512Z,72.17
2019-04-28T22:11:47.427Z,66.93
2019-04-28T22:13:51.323Z,71.13
2019-04-28T22:15:55.235Z,77.87
2019-04-28T22:17:59.191Z,77.87
2019-04-28T22:20:03.237Z,81.50
2019-04-28T22:22:07.279Z,76.20
2019-04-28T22:24:33.231Z,77.20
2019-04-28T22:26:44.164Z,82.07
2019-04-28T22:28:48.113Z,83.50
2019-04-28T22:30:52.074Z,89.80
2019-04-28T22:32:56.044Z,95.53
2019-04-28T22:34:59.961Z,84.53
2019-04-28T22:37:03.937Z,74.00
2019-04-28T22:39:08.361Z,78.00
2019-04-28T22:41:12.221Z,72.00
2019-04-28T22:43:16.212Z,81.63
2019-04-28T22:45:20.352Z,71.07
2019-04-28T22:47:24.365Z,70.57
2019-04-28T22:49:28.662Z,75.90
2019-04-28T22:51:41.683Z,81.10
2019-04-28T22:53:45.544Z,74.20
2019-04-28T22:56:01.597Z,68.40
2019-04-28T22:58:24.114Z,78.03
2019-04-28T23:00:43.916Z,69.20
2019-04-28T23:02:48.239Z,84.80
2019-04-28T23:05:00.689Z,77.30
2019-04-28T23:07:05.152Z,75.37
2019-04-28T23:09:13.586Z,75.50
2019-04-28T23:11:17.514Z,80.03
2019-04-28T23:13:21.621Z,74.07
2019-04-28T23:15:25.567Z,83.13
2019-04-28T23:17:29.519Z,85.93
2019-04-28T23:19:35.621Z,92.27
2019-04-28T23:21:51.436Z,92.83
2019-04-28T23:23:55.476Z,95.57
2019-04-28T23:25:59.453Z,104.73
2019-04-28T23:28:03.682Z,100.80
2019-04-28T23:30:08.762Z,99.93
2019-04-28T23:32:12.802Z,112.43
2019-04-28T23:34:19.753Z,102.00
2019-04-28T23:36:23.741Z,99.37
2019-04-28T23:38:27.619Z,99.97
2019-04-28T23:40:31.617Z,114.33
2019-04-28T23:42:41.602Z,121.40
2019-04-28T23:44:45.531Z,120.20
2019-04-28T23:46:57.107Z,127.25
2019-04-28T23:49:04.993Z,112.07
2019-04-28T23:51:28.210Z,102.40
2019-04-28T23:53:57.942Z,119.57
2019-04-28T23:56:05.072Z,136.33
2019-04-28T23:58:09.351Z,141.20
